sensor_id;sensor_type;location;lat;lon;timestamp;P1;durP1;ratioP1;P2;durP2;ratioP2
51006;SDS011;37034;47.886;-3.904;2023-06-24T00:01:23;7.10;;;3.83;;
51006;SDS011;37034;47.886;-3.904;2023-06-24T00:03:49;5.35;;;3.30;;
51006;SDS011;37034;47.886;-3.904;2023-06-24T00:06:18;5.13;;;2.88;;
51006;SDS011;37034;47.886;-3.904;2023-06-24T00:11:10;8.70;;;3.97;;
51006;SDS011;37034;47.886;-3.904;2023-06-24T00:13:36;6.38;;;3.38;;
51006;SDS011;37034;47.886;-3.904;2023-06-24T00:16:02;6.10;;;3.00;;
51006;SDS011;37034;47.886;-3.904;2023-06-24T00:18:28;9.38;;;3.53;;
51006;SDS011;37034;47.886;-3.904;2023-06-24T00:20:54;7.45;;;4.50;;
51006;SDS011;37034;47.886;-3.904;2023-06-24T00:23:22;7.65;;;3.90;;
51006;SDS011;37034;47.886;-3.904;2023-06-24T00:25:51;7.22;;;4.00;;
51006;SDS011;37034;47.886;-3.904;2023-06-24T00:30:43;6.25;;;3.38;;
51006;SDS011;37034;47.886;-3.904;2023-06-24T00:33:09;9.52;;;3.92;;
51006;SDS011;37034;47.886;-3.904;2023-06-24T00:35:36;6.03;;;3.63;;
51006;SDS011;37034;47.886;-3.904;2023-06-24T00:38:05;7.80;;;3.70;;
51006;SDS011;37034;47.886;-3.904;2023-06-24T00:40:31;8.60;;;3.58;;
51006;SDS011;37034;47.886;-3.904;2023-06-24T00:42:57;9.63;;;3.92;;
51006;SDS011;37034;47.886;-3.904;2023-06-24T00:45:23;8.40;;;3.95;;
51006;SDS011;37034;47.886;-3.904;2023-06-24T00:50:16;6.67;;;3.97;;
51006;SDS011;37034;47.886;-3.904;2023-06-24T00:52:42;7.63;;;4.00;;
51006;SDS011;37034;47.886;-3.904;2023-06-24T00:55:11;9.27;;;4.15;;
51006;SDS011;37034;47.886;-3.904;2023-06-24T00:58:00;7.32;;;4.38;;
51006;SDS011;37034;47.886;-3.904;2023-06-24T01:00:26;8.82;;;4.20;;
51006;SDS011;37034;47.886;-3.904;2023-06-24T01:02:52;6.85;;;4.10;;
51006;SDS011;37034;47.886;-3.904;2023-06-24T01:05:18;6.63;;;4.30;;
51006;SDS011;37034;47.886;-3.904;2023-06-24T01:07:48;9.57;;;4.60;;
51006;SDS011;37034;47.886;-3.904;2023-06-24T01:10:20;9.35;;;4.50;;
51006;SDS011;37034;47.886;-3.904;2023-06-24T01:12:47;9.73;;;4.45;;
51006;SDS011;37034;47.886;-3.904;2023-06-24T01:15:12;10.55;;;4.65;;
51006;SDS011;37034;47.886;-3.904;2023-06-24T01:17:48;6.43;;;3.78;;
51006;SDS011;37034;47.886;-3.904;2023-06-24T01:20:20;7.95;;;3.97;;
51006;SDS011;37034;47.886;-3.904;2023-06-24T01:34:18;8.25;;;4.18;;
51006;SDS011;37034;47.886;-3.904;2023-06-24T01:39:52;6.28;;;4.05;;
51006;SDS011;37034;47.886;-3.904;2023-06-24T01:42:25;9.57;;;4.18;;
51006;SDS011;37034;47.886;-3.904;2023-06-24T01:44:53;7.07;;;4.30;;
51006;SDS011;37034;47.886;-3.904;2023-06-24T01:47:21;8.90;;;4.18;;
51006;SDS011;37034;47.886;-3.904;2023-06-24T01:49:52;6.22;;;3.90;;
51006;SDS011;37034;47.886;-3.904;2023-06-24T01:52:21;8.52;;;4.43;;
51006;SDS011;37034;47.886;-3.904;2023-06-24T01:54:48;8.27;;;4.53;;
51006;SDS011;37034;47.886;-3.904;2023-06-24T01:57:15;8.10;;;4.15;;
51006;SDS011;37034;47.886;-3.904;2023-06-24T01:59:44;9.45;;;4.55;;
51006;SDS011;37034;47.886;-3.904;2023-06-24T02:02:11;8.57;;;4.25;;
51006;SDS011;37034;47.886;-3.904;2023-06-24T02:04:38;6.75;;;4.25;;
51006;SDS011;37034;47.886;-3.904;2023-06-24T02:07:04;6.68;;;3.92;;
51006;SDS011;37034;47.886;-3.904;2023-06-24T02:09:32;12.70;;;4.65;;
51006;SDS011;37034;47.886;-3.904;2023-06-24T02:11:59;8.50;;;4.10;;
51006;SDS011;37034;47.886;-3.904;2023-06-24T02:14:28;7.30;;;4.22;;
51006;SDS011;37034;47.886;-3.904;2023-06-24T02:16:55;10.48;;;4.20;;
51006;SDS011;37034;47.886;-3.904;2023-06-24T02:19:24;6.93;;;4.07;;
51006;SDS011;37034;47.886;-3.904;2023-06-24T02:21:53;8.23;;;4.18;;
51006;SDS011;37034;47.886;-3.904;2023-06-24T02:24:21;7.88;;;4.00;;
51006;SDS011;37034;47.886;-3.904;2023-06-24T02:26:48;7.05;;;3.78;;
51006;SDS011;37034;47.886;-3.904;2023-06-24T02:29:15;5.80;;;3.83;;
51006;SDS011;37034;47.886;-3.904;2023-06-24T02:31:43;7.28;;;4.00;;
51006;SDS011;37034;47.886;-3.904;2023-06-24T02:34:09;10.05;;;3.83;;
51006;SDS011;37034;47.886;-3.904;2023-06-24T02:36:34;7.53;;;3.45;;
51006;SDS011;37034;47.886;-3.904;2023-06-24T02:39:00;6.90;;;4.05;;
51006;SDS011;37034;47.886;-3.904;2023-06-24T02:41:26;6.15;;;3.63;;
51006;SDS011;37034;47.886;-3.904;2023-06-24T02:43:52;7.50;;;3.97;;
51006;SDS011;37034;47.886;-3.904;2023-06-24T02:46:17;6.93;;;3.55;;
51006;SDS011;37034;47.886;-3.904;2023-06-24T02:48:45;6.78;;;4.00;;
51006;SDS011;37034;47.886;-3.904;2023-06-24T02:51:11;8.43;;;3.63;;
51006;SDS011;37034;47.886;-3.904;2023-06-24T02:56:04;8.10;;;3.88;;
51006;SDS011;37034;47.886;-3.904;2023-06-24T02:58:31;8.45;;;3.65;;
51006;SDS011;37034;47.886;-3.904;2023-06-24T03:00:59;7.40;;;3.88;;
51006;SDS011;37034;47.886;-3.904;2023-06-24T03:03:27;7.47;;;3.40;;
51006;SDS011;37034;47.886;-3.904;2023-06-24T03:05:54;6.38;;;3.45;;
51006;SDS011;37034;47.886;-3.904;2023-06-24T03:08:23;12.43;;;3.92;;
51006;SDS011;37034;47.886;-3.904;2023-06-24T03:10:56;9.68;;;3.78;;
51006;SDS011;37034;47.886;-3.904;2023-06-24T03:13:22;7.07;;;3.72;;
51006;SDS011;37034;47.886;-3.904;2023-06-24T03:15:48;9.32;;;3.67;;
51006;SDS011;37034;47.886;-3.904;2023-06-24T03:18:15;5.93;;;2.90;;
51006;SDS011;37034;47.886;-3.904;2023-06-24T03:20:41;8.27;;;3.20;;
51006;SDS011;37034;47.886;-3.904;2023-06-24T03:23:07;6.45;;;3.88;;
51006;SDS011;37034;47.886;-3.904;2023-06-24T03:25:34;8.18;;;3.38;;
51006;SDS011;37034;47.886;-3.904;2023-06-24T03:27:59;8.32;;;3.60;;
51006;SDS011;37034;47.886;-3.904;2023-06-24T03:30:26;5.80;;;3.13;;
51006;SDS011;37034;47.886;-3.904;2023-06-24T03:35:17;6.15;;;3.20;;
51006;SDS011;37034;47.886;-3.904;2023-06-24T03:37:43;11.63;;;4.00;;
51006;SDS011;37034;47.886;-3.904;2023-06-24T03:40:09;5.57;;;3.13;;
51006;SDS011;37034;47.886;-3.904;2023-06-24T03:42:35;7.28;;;3.63;;
51006;SDS011;37034;47.886;-3.904;2023-06-24T03:45:02;7.72;;;3.13;;
51006;SDS011;37034;47.886;-3.904;2023-06-24T03:47:28;6.85;;;3.75;;
51006;SDS011;37034;47.886;-3.904;2023-06-24T03:49:54;6.97;;;3.15;;
51006;SDS011;37034;47.886;-3.904;2023-06-24T03:52:19;9.95;;;4.28;;
51006;SDS011;37034;47.886;-3.904;2023-06-24T03:54:45;5.75;;;3.38;;
51006;SDS011;37034;47.886;-3.904;2023-06-24T03:57:12;7.32;;;3.50;;
51006;SDS011;37034;47.886;-3.904;2023-06-24T03:59:38;8.10;;;3.80;;
51006;SDS011;37034;47.886;-3.904;2023-06-24T04:02:04;9.38;;;3.50;;
51006;SDS011;37034;47.886;-3.904;2023-06-24T04:04:33;5.32;;;3.28;;
51006;SDS011;37034;47.886;-3.904;2023-06-24T04:07:01;7.07;;;3.75;;
51006;SDS011;37034;47.886;-3.904;2023-06-24T04:09:29;7.43;;;3.55;;
51006;SDS011;37034;47.886;-3.904;2023-06-24T04:11:56;6.85;;;3.15;;
51006;SDS011;37034;47.886;-3.904;2023-06-24T04:14:22;5.70;;;3.00;;
51006;SDS011;37034;47.886;-3.904;2023-06-24T04:16:47;8.85;;;3.42;;
51006;SDS011;37034;47.886;-3.904;2023-06-24T04:19:13;5.80;;;3.38;;
51006;SDS011;37034;47.886;-3.904;2023-06-24T04:21:39;8.60;;;3.50;;
51006;SDS011;37034;47.886;-3.904;2023-06-24T04:24:04;7.07;;;3.47;;
51006;SDS011;37034;47.886;-3.904;2023-06-24T04:26:30;7.07;;;3.47;;
51006;SDS011;37034;47.886;-3.904;2023-06-24T04:28:56;7.25;;;3.60;;
51006;SDS011;37034;47.886;-3.904;2023-06-24T04:31:21;6.80;;;3.10;;
51006;SDS011;37034;47.886;-3.904;2023-06-24T04:33:47;6.93;;;3.28;;
51006;SDS011;37034;47.886;-3.904;2023-06-24T04:36:12;7.70;;;3.17;;
51006;SDS011;37034;47.886;-3.904;2023-06-24T04:38:38;8.65;;;3.30;;
51006;SDS011;37034;47.886;-3.904;2023-06-24T04:41:04;9.32;;;3.22;;
51006;SDS011;37034;47.886;-3.904;2023-06-24T04:43:29;5.95;;;2.85;;
51006;SDS011;37034;47.886;-3.904;2023-06-24T04:45:55;5.95;;;3.13;;
51006;SDS011;37034;47.886;-3.904;2023-06-24T04:50:50;7.32;;;3.30;;
51006;SDS011;37034;47.886;-3.904;2023-06-24T04:53:16;5.82;;;3.08;;
51006;SDS011;37034;47.886;-3.904;2023-06-24T04:55:41;7.38;;;3.58;;
51006;SDS011;37034;47.886;-3.904;2023-06-24T04:58:07;5.93;;;3.42;;
51006;SDS011;37034;47.886;-3.904;2023-06-24T05:00:32;8.68;;;3.42;;
51006;SDS011;37034;47.886;-3.904;2023-06-24T05:02:58;6.75;;;3.22;;
51006;SDS011;37034;47.886;-3.904;2023-06-24T05:05:24;5.22;;;3.20;;
51006;SDS011;37034;47.886;-3.904;2023-06-24T05:10:16;6.05;;;3.20;;
51006;SDS011;37034;47.886;-3.904;2023-06-24T05:12:41;8.27;;;3.60;;
51006;SDS011;37034;47.886;-3.904;2023-06-24T05:15:07;7.47;;;3.45;;
51006;SDS011;37034;47.886;-3.904;2023-06-24T05:17:33;7.25;;;3.03;;
51006;SDS011;37034;47.886;-3.904;2023-06-24T05:19:59;5.20;;;2.85;;
51006;SDS011;37034;47.886;-3.904;2023-06-24T05:22:24;6.72;;;3.53;;
51006;SDS011;37034;47.886;-3.904;2023-06-24T05:24:50;6.95;;;3.47;;
51006;SDS011;37034;47.886;-3.904;2023-06-24T05:27:16;7.13;;;2.97;;
51006;SDS011;37034;47.886;-3.904;2023-06-24T05:32:08;10.30;;;3.55;;
51006;SDS011;37034;47.886;-3.904;2023-06-24T05:34:34;9.07;;;3.58;;
51006;SDS011;37034;47.886;-3.904;2023-06-24T05:37:00;4.63;;;3.13;;
51006;SDS011;37034;47.886;-3.904;2023-06-24T05:39:25;5.22;;;3.35;;
51006;SDS011;37034;47.886;-3.904;2023-06-24T05:41:51;6.65;;;3.30;;
51006;SDS011;37034;47.886;-3.904;2023-06-24T05:44:17;5.88;;;3.35;;
51006;SDS011;37034;47.886;-3.904;2023-06-24T05:46:43;6.57;;;3.17;;
51006;SDS011;37034;47.886;-3.904;2023-06-24T05:49:10;6.55;;;3.20;;
51006;SDS011;37034;47.886;-3.904;2023-06-24T05:51:36;4.68;;;2.55;;
51006;SDS011;37034;47.886;-3.904;2023-06-24T05:56:28;5.93;;;2.95;;
51006;SDS011;37034;47.886;-3.904;2023-06-24T05:58:54;7.57;;;2.97;;
51006;SDS011;37034;47.886;-3.904;2023-06-24T06:01:20;6.63;;;3.08;;
51006;SDS011;37034;47.886;-3.904;2023-06-24T06:03:45;9.63;;;3.22;;
51006;SDS011;37034;47.886;-3.904;2023-06-24T06:06:11;6.63;;;3.00;;
51006;SDS011;37034;47.886;-3.904;2023-06-24T06:08:36;5.63;;;3.08;;
51006;SDS011;37034;47.886;-3.904;2023-06-24T06:11:02;6.95;;;3.40;;
51006;SDS011;37034;47.886;-3.904;2023-06-24T06:13:28;4.82;;;2.60;;
51006;SDS011;37034;47.886;-3.904;2023-06-24T06:15:55;6.10;;;3.15;;
51006;SDS011;37034;47.886;-3.904;2023-06-24T06:20:46;9.55;;;2.80;;
51006;SDS011;37034;47.886;-3.904;2023-06-24T06:23:12;7.53;;;3.33;;
51006;SDS011;37034;47.886;-3.904;2023-06-24T06:25:38;9.77;;;3.33;;
51006;SDS011;37034;47.886;-3.904;2023-06-24T06:28:04;6.03;;;3.33;;
51006;SDS011;37034;47.886;-3.904;2023-06-24T06:30:30;5.70;;;3.08;;
51006;SDS011;37034;47.886;-3.904;2023-06-24T06:32:55;7.57;;;2.97;;
51006;SDS011;37034;47.886;-3.904;2023-06-24T06:35:21;7.55;;;2.78;;
51006;SDS011;37034;47.886;-3.904;2023-06-24T06:37:46;8.43;;;3.30;;
51006;SDS011;37034;47.886;-3.904;2023-06-24T06:40:17;5.18;;;3.05;;
51006;SDS011;37034;47.886;-3.904;2023-06-24T06:42:46;5.90;;;2.83;;
51006;SDS011;37034;47.886;-3.904;2023-06-24T06:45:12;7.95;;;2.85;;
51006;SDS011;37034;47.886;-3.904;2023-06-24T06:47:38;7.65;;;3.20;;
51006;SDS011;37034;47.886;-3.904;2023-06-24T06:50:04;8.73;;;3.00;;
51006;SDS011;37034;47.886;-3.904;2023-06-24T06:52:33;6.53;;;2.97;;
51006;SDS011;37034;47.886;-3.904;2023-06-24T06:54:58;7.00;;;3.00;;
51006;SDS011;37034;47.886;-3.904;2023-06-24T06:57:24;5.95;;;3.30;;
51006;SDS011;37034;47.886;-3.904;2023-06-24T06:59:50;5.57;;;3.08;;
51006;SDS011;37034;47.886;-3.904;2023-06-24T07:02:18;8.20;;;3.10;;
51006;SDS011;37034;47.886;-3.904;2023-06-24T07:07:09;7.32;;;3.00;;
51006;SDS011;37034;47.886;-3.904;2023-06-24T07:09:36;6.88;;;3.58;;
51006;SDS011;37034;47.886;-3.904;2023-06-24T07:12:02;5.57;;;3.10;;
51006;SDS011;37034;47.886;-3.904;2023-06-24T07:14:28;4.75;;;3.20;;
51006;SDS011;37034;47.886;-3.904;2023-06-24T07:16:54;4.93;;;3.40;;
51006;SDS011;37034;47.886;-3.904;2023-06-24T07:19:19;6.30;;;3.03;;
51006;SDS011;37034;47.886;-3.904;2023-06-24T07:21:45;7.47;;;2.92;;
51006;SDS011;37034;47.886;-3.904;2023-06-24T07:24:11;5.70;;;3.03;;
51006;SDS011;37034;47.886;-3.904;2023-06-24T07:26:36;8.90;;;3.28;;
51006;SDS011;37034;47.886;-3.904;2023-06-24T07:29:05;7.07;;;3.50;;
51006;SDS011;37034;47.886;-3.904;2023-06-24T07:31:31;7.10;;;3.17;;
51006;SDS011;37034;47.886;-3.904;2023-06-24T07:33:57;5.65;;;3.00;;
51006;SDS011;37034;47.886;-3.904;2023-06-24T07:36:23;6.18;;;2.97;;
51006;SDS011;37034;47.886;-3.904;2023-06-24T07:38:48;4.85;;;3.30;;
51006;SDS011;37034;47.886;-3.904;2023-06-24T07:41:14;7.55;;;3.13;;
51006;SDS011;37034;47.886;-3.904;2023-06-24T07:43:40;5.32;;;3.13;;
51006;SDS011;37034;47.886;-3.904;2023-06-24T07:46:05;5.55;;;3.30;;
51006;SDS011;37034;47.886;-3.904;2023-06-24T07:48:31;6.25;;;3.38;;
51006;SDS011;37034;47.886;-3.904;2023-06-24T07:50:57;9.27;;;2.90;;
51006;SDS011;37034;47.886;-3.904;2023-06-24T07:55:48;8.25;;;3.30;;
51006;SDS011;37034;47.886;-3.904;2023-06-24T07:58:14;4.47;;;3.38;;
51006;SDS011;37034;47.886;-3.904;2023-06-24T08:00:40;4.38;;;3.10;;
51006;SDS011;37034;47.886;-3.904;2023-06-24T08:03:05;7.45;;;3.50;;
51006;SDS011;37034;47.886;-3.904;2023-06-24T08:05:31;5.40;;;3.20;;
51006;SDS011;37034;47.886;-3.904;2023-06-24T08:07:57;6.20;;;3.58;;
51006;SDS011;37034;47.886;-3.904;2023-06-24T08:10:22;6.93;;;3.25;;
51006;SDS011;37034;47.886;-3.904;2023-06-24T08:12:48;4.90;;;2.90;;
51006;SDS011;37034;47.886;-3.904;2023-06-24T08:15:14;6.53;;;3.30;;
51006;SDS011;37034;47.886;-3.904;2023-06-24T08:17:39;5.50;;;2.90;;
51006;SDS011;37034;47.886;-3.904;2023-06-24T08:20:05;5.22;;;3.25;;
51006;SDS011;37034;47.886;-3.904;2023-06-24T08:22:31;5.05;;;3.15;;
51006;SDS011;37034;47.886;-3.904;2023-06-24T08:24:58;5.25;;;3.47;;
51006;SDS011;37034;47.886;-3.904;2023-06-24T08:27:23;7.75;;;3.42;;
51006;SDS011;37034;47.886;-3.904;2023-06-24T08:29:49;6.32;;;3.38;;
51006;SDS011;37034;47.886;-3.904;2023-06-24T08:32:14;4.93;;;2.95;;
51006;SDS011;37034;47.886;-3.904;2023-06-24T08:34:40;7.15;;;3.10;;
51006;SDS011;37034;47.886;-3.904;2023-06-24T08:37:06;6.10;;;3.10;;
51006;SDS011;37034;47.886;-3.904;2023-06-24T08:39:31;4.60;;;3.53;;
51006;SDS011;37034;47.886;-3.904;2023-06-24T08:41:57;7.43;;;3.47;;
51006;SDS011;37034;47.886;-3.904;2023-06-24T08:44:23;4.70;;;3.35;;
51006;SDS011;37034;47.886;-3.904;2023-06-24T08:46:48;5.75;;;3.53;;
51006;SDS011;37034;47.886;-3.904;2023-06-24T08:54:51;5.40;;;3.60;;
51006;SDS011;37034;47.886;-3.904;2023-06-24T08:57:20;5.43;;;3.25;;
51006;SDS011;37034;47.886;-3.904;2023-06-24T08:59:46;8.35;;;3.35;;
51006;SDS011;37034;47.886;-3.904;2023-06-24T09:02:11;8.00;;;3.60;;
51006;SDS011;37034;47.886;-3.904;2023-06-24T09:04:39;6.05;;;3.40;;
51006;SDS011;37034;47.886;-3.904;2023-06-24T09:07:05;6.03;;;3.55;;
51006;SDS011;37034;47.886;-3.904;2023-06-24T09:11:58;5.50;;;3.75;;
51006;SDS011;37034;47.886;-3.904;2023-06-24T09:14:25;5.53;;;3.47;;
51006;SDS011;37034;47.886;-3.904;2023-06-24T09:16:53;9.88;;;3.78;;
51006;SDS011;37034;47.886;-3.904;2023-06-24T09:19:20;5.97;;;3.58;;
51006;SDS011;37034;47.886;-3.904;2023-06-24T09:21:50;5.32;;;3.90;;
51006;SDS011;37034;47.886;-3.904;2023-06-24T09:24:17;5.72;;;3.65;;
51006;SDS011;37034;47.886;-3.904;2023-06-24T09:26:44;10.02;;;3.70;;
51006;SDS011;37034;47.886;-3.904;2023-06-24T09:29:10;6.75;;;3.67;;
51006;SDS011;37034;47.886;-3.904;2023-06-24T09:31:45;5.10;;;3.50;;
51006;SDS011;37034;47.886;-3.904;2023-06-24T09:34:14;10.65;;;3.58;;
51006;SDS011;37034;47.886;-3.904;2023-06-24T09:36:43;11.60;;;3.40;;
51006;SDS011;37034;47.886;-3.904;2023-06-24T09:39:10;7.50;;;3.95;;
51006;SDS011;37034;47.886;-3.904;2023-06-24T09:41:39;10.73;;;3.75;;
51006;SDS011;37034;47.886;-3.904;2023-06-24T09:44:07;12.75;;;3.83;;
51006;SDS011;37034;47.886;-3.904;2023-06-24T09:46:35;5.82;;;3.35;;
51006;SDS011;37034;47.886;-3.904;2023-06-24T09:49:02;9.48;;;3.97;;
51006;SDS011;37034;47.886;-3.904;2023-06-24T09:51:36;7.65;;;3.85;;
51006;SDS011;37034;47.886;-3.904;2023-06-24T09:54:07;6.78;;;3.70;;
51006;SDS011;37034;47.886;-3.904;2023-06-24T09:56:37;6.63;;;3.75;;
51006;SDS011;37034;47.886;-3.904;2023-06-24T09:59:24;7.03;;;3.60;;
51006;SDS011;37034;47.886;-3.904;2023-06-24T10:01:52;10.35;;;3.67;;
51006;SDS011;37034;47.886;-3.904;2023-06-24T10:04:19;5.47;;;3.30;;
51006;SDS011;37034;47.886;-3.904;2023-06-24T10:06:48;4.68;;;3.45;;
51006;SDS011;37034;47.886;-3.904;2023-06-24T10:11:43;9.45;;;3.72;;
51006;SDS011;37034;47.886;-3.904;2023-06-24T10:14:10;5.72;;;3.17;;
51006;SDS011;37034;47.886;-3.904;2023-06-24T10:16:36;9.65;;;3.67;;
51006;SDS011;37034;47.886;-3.904;2023-06-24T10:21:43;5.97;;;3.63;;
51006;SDS011;37034;47.886;-3.904;2023-06-24T10:24:11;9.52;;;3.53;;
51006;SDS011;37034;47.886;-3.904;2023-06-24T10:26:39;10.60;;;3.63;;
51006;SDS011;37034;47.886;-3.904;2023-06-24T10:42:29;5.47;;;3.47;;
51006;SDS011;37034;47.886;-3.904;2023-06-24T10:45:12;6.20;;;3.40;;
51006;SDS011;37034;47.886;-3.904;2023-06-24T10:47:43;7.65;;;3.80;;
51006;SDS011;37034;47.886;-3.904;2023-06-24T10:50:20;8.30;;;3.83;;
51006;SDS011;37034;47.886;-3.904;2023-06-24T10:52:48;10.10;;;4.15;;
51006;SDS011;37034;47.886;-3.904;2023-06-24T10:55:18;7.03;;;3.60;;
51006;SDS011;37034;47.886;-3.904;2023-06-24T10:57:44;6.20;;;3.90;;
51006;SDS011;37034;47.886;-3.904;2023-06-24T11:00:11;6.53;;;3.53;;
51006;SDS011;37034;47.886;-3.904;2023-06-24T11:02:38;5.72;;;3.95;;
51006;SDS011;37034;47.886;-3.904;2023-06-24T11:05:04;8.07;;;3.63;;
51006;SDS011;37034;47.886;-3.904;2023-06-24T11:07:31;6.18;;;3.65;;
51006;SDS011;37034;47.886;-3.904;2023-06-24T11:10:06;5.57;;;3.90;;
51006;SDS011;37034;47.886;-3.904;2023-06-24T11:12:33;9.27;;;3.83;;
51006;SDS011;37034;47.886;-3.904;2023-06-24T11:15:04;11.50;;;4.18;;
51006;SDS011;37034;47.886;-3.904;2023-06-24T11:17:32;5.65;;;3.90;;
51006;SDS011;37034;47.886;-3.904;2023-06-24T11:19:59;5.43;;;4.03;;
51006;SDS011;37034;47.886;-3.904;2023-06-24T11:22:25;10.55;;;3.92;;
51006;SDS011;37034;47.886;-3.904;2023-06-24T11:24:52;8.57;;;3.80;;
51006;SDS011;37034;47.886;-3.904;2023-06-24T11:27:23;8.98;;;4.32;;
51006;SDS011;37034;47.886;-3.904;2023-06-24T11:29:51;6.47;;;4.15;;
51006;SDS011;37034;47.886;-3.904;2023-06-24T11:32:18;5.40;;;3.72;;
51006;SDS011;37034;47.886;-3.904;2023-06-24T11:34:44;10.50;;;4.00;;
51006;SDS011;37034;47.886;-3.904;2023-06-24T11:37:11;6.38;;;3.75;;
51006;SDS011;37034;47.886;-3.904;2023-06-24T11:39:37;5.80;;;3.72;;
51006;SDS011;37034;47.886;-3.904;2023-06-24T11:42:05;5.05;;;3.85;;
51006;SDS011;37034;47.886;-3.904;2023-06-24T11:44:32;9.32;;;3.95;;
51006;SDS011;37034;47.886;-3.904;2023-06-24T11:47:05;7.38;;;3.70;;
51006;SDS011;37034;47.886;-3.904;2023-06-24T11:49:31;5.80;;;3.60;;
51006;SDS011;37034;47.886;-3.904;2023-06-24T11:51:57;5.45;;;4.07;;
51006;SDS011;37034;47.886;-3.904;2023-06-24T11:54:23;7.32;;;4.03;;
51006;SDS011;37034;47.886;-3.904;2023-06-24T11:56:52;4.70;;;3.55;;
51006;SDS011;37034;47.886;-3.904;2023-06-24T11:59:19;4.80;;;3.55;;
51006;SDS011;37034;47.886;-3.904;2023-06-24T12:01:56;7.05;;;3.58;;
51006;SDS011;37034;47.886;-3.904;2023-06-24T12:04:29;8.88;;;3.80;;
51006;SDS011;37034;47.886;-3.904;2023-06-24T12:06:56;7.82;;;3.95;;
51006;SDS011;37034;47.886;-3.904;2023-06-24T12:09:22;4.57;;;3.97;;
51006;SDS011;37034;47.886;-3.904;2023-06-24T12:11:48;4.60;;;3.33;;
51006;SDS011;37034;47.886;-3.904;2023-06-24T12:14:14;9.05;;;4.00;;
51006;SDS011;37034;47.886;-3.904;2023-06-24T12:16:40;6.22;;;3.70;;
51006;SDS011;37034;47.886;-3.904;2023-06-24T12:19:06;7.03;;;3.50;;
51006;SDS011;37034;47.886;-3.904;2023-06-24T12:21:32;6.53;;;4.10;;
51006;SDS011;37034;47.886;-3.904;2023-06-24T12:23:58;6.18;;;3.80;;
51006;SDS011;37034;47.886;-3.904;2023-06-24T12:26:24;7.85;;;3.85;;
51006;SDS011;37034;47.886;-3.904;2023-06-24T12:28:50;6.93;;;3.80;;
51006;SDS011;37034;47.886;-3.904;2023-06-24T12:31:15;5.43;;;3.97;;
51006;SDS011;37034;47.886;-3.904;2023-06-24T12:33:41;8.70;;;3.85;;
51006;SDS011;37034;47.886;-3.904;2023-06-24T12:36:07;7.35;;;3.95;;
51006;SDS011;37034;47.886;-3.904;2023-06-24T12:38:32;8.18;;;3.97;;
51006;SDS011;37034;47.886;-3.904;2023-06-24T12:40:58;9.02;;;4.20;;
51006;SDS011;37034;47.886;-3.904;2023-06-24T12:43:24;24.80;;;16.00;;
51006;SDS011;37034;47.886;-3.904;2023-06-24T12:45:49;116.82;;;66.10;;
51006;SDS011;37034;47.886;-3.904;2023-06-24T12:48:16;153.20;;;83.53;;
51006;SDS011;37034;47.886;-3.904;2023-06-24T12:50:41;337.75;;;227.23;;
51006;SDS011;37034;47.886;-3.904;2023-06-24T12:53:08;122.82;;;99.05;;
51006;SDS011;37034;47.886;-3.904;2023-06-24T12:55:35;32.20;;;25.67;;
51006;SDS011;37034;47.886;-3.904;2023-06-24T12:58:01;15.63;;;12.27;;
51006;SDS011;37034;47.886;-3.904;2023-06-24T13:00:27;9.88;;;6.00;;
51006;SDS011;37034;47.886;-3.904;2023-06-24T13:02:53;8.45;;;4.95;;
51006;SDS011;37034;47.886;-3.904;2023-06-24T13:05:18;6.53;;;3.92;;
51006;SDS011;37034;47.886;-3.904;2023-06-24T13:07:44;10.38;;;4.75;;
51006;SDS011;37034;47.886;-3.904;2023-06-24T13:10:10;6.43;;;4.20;;
51006;SDS011;37034;47.886;-3.904;2023-06-24T13:12:36;11.13;;;4.50;;
51006;SDS011;37034;47.886;-3.904;2023-06-24T13:15:03;7.68;;;4.10;;
51006;SDS011;37034;47.886;-3.904;2023-06-24T13:17:29;9.27;;;4.40;;
51006;SDS011;37034;47.886;-3.904;2023-06-24T13:19:56;5.05;;;3.70;;
51006;SDS011;37034;47.886;-3.904;2023-06-24T13:22:22;5.47;;;3.92;;
51006;SDS011;37034;47.886;-3.904;2023-06-24T13:24:48;4.85;;;3.72;;
51006;SDS011;37034;47.886;-3.904;2023-06-24T13:27:14;7.95;;;4.05;;
51006;SDS011;37034;47.886;-3.904;2023-06-24T13:29:40;8.88;;;4.55;;
51006;SDS011;37034;47.886;-3.904;2023-06-24T13:32:05;7.00;;;4.22;;
51006;SDS011;37034;47.886;-3.904;2023-06-24T13:34:31;4.80;;;3.78;;
51006;SDS011;37034;47.886;-3.904;2023-06-24T13:36:57;5.43;;;4.05;;
51006;SDS011;37034;47.886;-3.904;2023-06-24T13:39:23;8.07;;;4.00;;
51006;SDS011;37034;47.886;-3.904;2023-06-24T13:41:49;5.65;;;4.18;;
51006;SDS011;37034;47.886;-3.904;2023-06-24T13:44:15;5.28;;;3.97;;
51006;SDS011;37034;47.886;-3.904;2023-06-24T13:46:41;5.28;;;3.85;;
51006;SDS011;37034;47.886;-3.904;2023-06-24T13:49:07;6.90;;;4.07;;
51006;SDS011;37034;47.886;-3.904;2023-06-24T13:51:32;6.20;;;3.85;;
51006;SDS011;37034;47.886;-3.904;2023-06-24T13:53:58;5.93;;;4.32;;
51006;SDS011;37034;47.886;-3.904;2023-06-24T13:56:24;7.07;;;4.55;;
51006;SDS011;37034;47.886;-3.904;2023-06-24T13:58:52;8.13;;;4.28;;
51006;SDS011;37034;47.886;-3.904;2023-06-24T14:01:18;9.95;;;4.75;;
51006;SDS011;37034;47.886;-3.904;2023-06-24T14:03:44;8.93;;;4.55;;
51006;SDS011;37034;47.886;-3.904;2023-06-24T14:06:11;7.70;;;4.10;;
51006;SDS011;37034;47.886;-3.904;2023-06-24T14:08:39;4.85;;;3.83;;
51006;SDS011;37034;47.886;-3.904;2023-06-24T14:11:05;5.70;;;4.03;;
51006;SDS011;37034;47.886;-3.904;2023-06-24T14:13:30;6.47;;;4.07;;
51006;SDS011;37034;47.886;-3.904;2023-06-24T14:15:56;5.53;;;4.10;;
51006;SDS011;37034;47.886;-3.904;2023-06-24T14:18:22;5.80;;;4.57;;
51006;SDS011;37034;47.886;-3.904;2023-06-24T14:20:48;5.75;;;4.05;;
51006;SDS011;37034;47.886;-3.904;2023-06-24T14:23:14;7.60;;;4.50;;
51006;SDS011;37034;47.886;-3.904;2023-06-24T14:25:40;6.63;;;4.07;;
51006;SDS011;37034;47.886;-3.904;2023-06-24T14:28:05;5.32;;;3.92;;
51006;SDS011;37034;47.886;-3.904;2023-06-24T14:30:32;6.70;;;4.28;;
51006;SDS011;37034;47.886;-3.904;2023-06-24T14:32:58;5.03;;;4.00;;
51006;SDS011;37034;47.886;-3.904;2023-06-24T14:35:23;7.07;;;4.07;;
51006;SDS011;37034;47.886;-3.904;2023-06-24T14:37:49;5.95;;;4.18;;
51006;SDS011;37034;47.886;-3.904;2023-06-24T14:40:15;8.93;;;4.35;;
51006;SDS011;37034;47.886;-3.904;2023-06-24T14:42:41;11.48;;;4.30;;
51006;SDS011;37034;47.886;-3.904;2023-06-24T14:45:07;6.63;;;4.25;;
51006;SDS011;37034;47.886;-3.904;2023-06-24T14:47:33;6.78;;;4.50;;
51006;SDS011;37034;47.886;-3.904;2023-06-24T14:49:58;7.50;;;4.32;;
51006;SDS011;37034;47.886;-3.904;2023-06-24T14:52:24;6.47;;;4.25;;
51006;SDS011;37034;47.886;-3.904;2023-06-24T14:54:50;9.65;;;4.47;;
51006;SDS011;37034;47.886;-3.904;2023-06-24T14:57:15;6.45;;;4.60;;
51006;SDS011;37034;47.886;-3.904;2023-06-24T14:59:41;5.57;;;4.40;;
51006;SDS011;37034;47.886;-3.904;2023-06-24T15:02:07;4.88;;;4.20;;
51006;SDS011;37034;47.886;-3.904;2023-06-24T15:04:35;7.47;;;4.72;;
51006;SDS011;37034;47.886;-3.904;2023-06-24T15:07:01;7.18;;;4.30;;
51006;SDS011;37034;47.886;-3.904;2023-06-24T15:09:26;8.80;;;4.07;;
51006;SDS011;37034;47.886;-3.904;2023-06-24T15:11:52;6.50;;;4.30;;
51006;SDS011;37034;47.886;-3.904;2023-06-24T15:14:18;9.88;;;4.25;;
51006;SDS011;37034;47.886;-3.904;2023-06-24T15:16:44;7.82;;;4.13;;
51006;SDS011;37034;47.886;-3.904;2023-06-24T15:19:09;4.82;;;4.13;;
51006;SDS011;37034;47.886;-3.904;2023-06-24T15:21:35;7.55;;;4.63;;
51006;SDS011;37034;47.886;-3.904;2023-06-24T15:24:01;5.35;;;4.30;;
51006;SDS011;37034;47.886;-3.904;2023-06-24T15:26:26;6.65;;;4.53;;
51006;SDS011;37034;47.886;-3.904;2023-06-24T15:28:52;6.95;;;4.28;;
51006;SDS011;37034;47.886;-3.904;2023-06-24T15:31:19;6.75;;;4.32;;
51006;SDS011;37034;47.886;-3.904;2023-06-24T15:33:44;8.18;;;4.35;;
51006;SDS011;37034;47.886;-3.904;2023-06-24T15:36:10;6.95;;;4.20;;
51006;SDS011;37034;47.886;-3.904;2023-06-24T15:38:36;7.15;;;4.28;;
51006;SDS011;37034;47.886;-3.904;2023-06-24T15:41:01;8.05;;;4.60;;